Time;durP1;ratioP1;P1;durP2;ratioP2;P2;SDS_P1;SDS_P2;PMS_P1;PMS_P2;Temp;Humidity;BMP_temperature;BMP_pressure;BME280_temperature;BME280_humidity;BME280_pressure;Samples;Min_cycle;Max_cycle;Signal;HPM_P1;HPM_P2
2023/03/20 00:02:16;;;;;;;19.17;8.25;;;;;;;4.21;92.10;100488.66;1678824;85;21192;-88
2023/03/20 00:05:27;;;;;;;21.52;7.60;;;;;;;4.17;92.05;100489.41;1678577;85;21747;-88
2023/03/20 00:08:33;;;;;;;17.00;7.25;;;;;;;4.14;92.16;100484.28;1678873;85;21188;-89
2023/03/20 00:11:42;;;;;;;15.03;8.15;;;;;;;4.15;91.94;100484.63;1677432;85;21819;-88
2023/03/20 00:14:48;;;;;;;22.02;8.80;;;;;;;4.11;91.80;100487.23;1677500;85;21273;-88
2023/03/20 00:17:46;;;;;;;;;;;;;;;4.04;92.13;100477.90;1681282;85;21196;-89
2023/03/20 00:20:46;;;;;;;24.70;7.90;;;;;;;4.15;91.79;100469.74;1677674;85;20227;-88
2023/03/20 00:23:41;;;;;;;19.42;8.08;;;;;;;4.16;91.68;100467.89;1678452;85;21216;-88
2023/03/20 00:26:44;;;;;;;36.53;18.37;;;;;;;4.12;91.63;100465.08;1678499;85;21228;-89
2023/03/20 00:29:43;;;;;;;63.75;26.05;;;;;;;3.98;92.01;100467.11;1678443;85;21280;-89
2023/03/20 00:32:49;;;;;;;55.43;22.60;;;;;;;3.99;91.94;100466.61;1678848;85;21200;-89
2023/03/20 00:35:57;;;;;;;24.00;11.38;;;;;;;3.85;92.15;100460.52;1678853;85;21240;-89
2023/03/20 00:39:04;;;;;;;25.45;9.15;;;;;;;3.82;92.36;100458.09;1677444;85;21838;-88
2023/03/20 00:42:11;;;;;;;29.90;9.53;;;;;;;3.62;92.71;100457.53;1678475;85;21232;-88
2023/03/20 00:45:21;;;;;;;30.72;11.22;;;;;;;3.46;93.33;100458.45;1678555;85;21193;-89
2023/03/20 00:48:22;;;;;;;31.87;10.68;;;;;;;3.34;93.69;100461.69;1677498;85;21196;-88
2023/03/20 00:51:29;;;;;;;30.88;10.25;;;;;;;3.37;93.46;100459.21;1678885;85;21192;-88
2023/03/20 00:54:36;;;;;;;28.00;9.68;;;;;;;3.22;93.46;100461.33;1677854;85;21279;-89
2023/03/20 00:57:46;;;;;;;21.97;10.23;;;;;;;3.12;93.85;100457.17;1678103;85;21224;-89
2023/03/20 01:00:51;;;;;;;;;;;;;;;3.05;93.97;100460.84;1681301;85;21244;-89
2023/03/20 01:03:57;;;;;;;17.80;9.30;;;;;;;3.01;94.08;100475.62;1678688;85;20220;-90
2023/03/20 01:07:04;;;;;;;24.32;9.00;;;;;;;2.92;94.17;100471.45;1677619;85;21201;-89
2023/03/20 01:10:10;;;;;;;20.43;10.18;;;;;;;2.79;94.58;100471.07;1678799;85;21273;-90
2023/03/20 01:13:35;;;;;;;20.82;9.95;;;;;;;2.63;95.11;100467.00;1677735;85;21216;-89
2023/03/20 01:16:40;;;;;;;19.17;9.30;;;;;;;2.56;95.40;100465.29;1678324;85;21755;-89
2023/03/20 01:19:46;;;;;;;21.20;9.55;;;;;;;2.53;95.39;100465.52;1678333;85;21260;-90
2023/03/20 01:22:45;;;;;;;16.25;9.88;;;;;;;2.36;95.94;100460.11;1678298;85;21240;-89
2023/03/20 01:25:52;;;;;;;18.17;9.48;;;;;;;2.38;95.78;100463.54;1677065;85;21267;-90
2023/03/20 01:28:58;;;;;;;24.20;10.15;;;;;;;2.29;95.87;100457.02;1678294;85;21176;-89
2023/03/20 01:31:57;;;;;;;22.32;10.72;;;;;;;2.27;96.08;100465.73;1678625;85;21189;-89
2023/03/20 01:35:03;;;;;;;20.32;11.25;;;;;;;2.25;96.09;100466.33;1680508;85;21232;-88
2023/03/20 01:38:08;;;;;;;21.50;10.72;;;;;;;2.27;95.99;100468.93;1683749;85;21236;-88
2023/03/20 01:41:21;;;;;;;18.67;9.73;;;;;;;2.22;96.28;100467.08;1682467;84;21223;-89
2023/03/20 01:44:31;;;;;;;17.82;10.55;;;;;;;2.23;96.26;100468.30;1683948;85;21818;-88
2023/03/20 01:47:37;;;;;;;18.20;11.33;;;;;;;2.22;95.98;100461.19;1684020;85;21232;-88
2023/03/20 01:50:44;;;;;;;27.17;10.78;;;;;;;2.07;96.30;100471.83;1682446;85;21270;-88
2023/03/20 01:53:54;;;;;;;25.45;10.60;;;;;;;2.05;96.58;100462.48;1683708;85;21275;-88
2023/03/20 01:57:06;;;;;;;21.12;10.68;;;;;;;2.00;96.84;100464.67;1682220;82;21208;-88
2023/03/20 02:00:16;;;;;;;21.10;10.85;;;;;;;1.92;97.29;100463.05;1683627;81;21256;-88
2023/03/20 02:03:22;;;;;;;26.02;11.12;;;;;;;1.89;97.75;100470.53;1683062;85;21247;-88
2023/03/20 02:06:43;;;;;;;33.60;12.53;;;;;;;1.86;97.87;100474.31;1666903;85;21212;-87
2023/03/20 02:10:02;;;;;;;29.27;12.10;;;;;;;1.80;97.98;100470.74;1683572;85;21216;-89
2023/03/20 02:13:15;;;;;;;27.77;12.75;;;;;;;1.79;98.11;100469.88;1683773;85;21315;-88
2023/03/20 02:16:21;;;;;;;20.52;12.78;;;;;;;1.71;98.17;100466.90;1682946;85;21212;-88
2023/03/20 02:20:42;;;;;;;33.15;12.88;;;;;;;1.73;97.86;100466.77;1682856;85;21208;-87
2023/03/20 02:24:28;;;;;;;28.85;13.60;;;;;;;1.68;97.78;100469.81;1684084;85;21232;-88
2023/03/20 02:27:49;;;;;;;38.00;13.13;;;;;;;1.63;97.80;100466.61;1684100;85;21188;-87
2023/03/20 02:31:42;;;;;;;32.63;14.35;;;;;;;1.59;97.99;100469.16;1682919;85;21239;-88
2023/03/20 02:35:10;;;;;;;25.50;14.78;;;;;;;1.57;98.04;100468.92;1683267;85;21834;-90
2023/03/20 02:38:45;;;;;;;33.90;15.60;;;;;;;1.46;98.69;100464.34;1666946;85;21723;-89
2023/03/20 02:41:56;;;;;;;35.23;16.62;;;;;;;1.47;98.83;100459.31;1667092;85;21255;-89
2023/03/20 02:45:34;;;;;;;41.45;16.17;;;;;;;1.39;99.05;100457.66;1682813;85;21187;-89
2023/03/20 02:49:04;;;;;;;46.63;17.92;;;;;;;1.40;99.23;100462.08;1682817;84;21203;-90
2023/03/20 02:52:31;;;;;;;41.65;18.60;;;;;;;1.23;99.51;100458.81;1684153;85;21196;-90
2023/03/20 02:55:59;;;;;;;33.78;17.77;;;;;;;1.18;100.00;100465.52;1683718;82;21279;-89
2023/03/20 02:59:20;;;;;;;37.95;19.12;;;;;;;1.29;100.00;100457.48;1684155;85;21192;-88
2023/03/20 03:02:48;;;;;;;49.27;18.55;;;;;;;1.32;100.00;100461.77;1684232;85;21145;-88
2023/03/20 03:06:07;;;;;;;49.80;20.23;;;;;;;1.34;100.00;100461.19;1683684;85;21203;-88
2023/03/20 03:09:24;;;;;;;42.25;20.15;;;;;;;1.45;100.00;100465.28;1683691;85;21268;-88
2023/03/20 03:12:39;;;;;;;34.07;17.63;;;;;;;1.51;100.00;100463.50;1684275;85;21193;-87
2023/03/20 03:15:48;;;;;;;50.28;20.95;;;;;;;1.48;100.00;100455.63;1683781;85;21232;-88
2023/03/20 03:18:56;;;;;;;48.40;21.00;;;;;;;1.42;100.00;100456.10;1684448;85;21215;-88
2023/03/20 03:21:56;;;;;;;37.58;21.62;;;;;;;1.46;100.00;100457.59;1684291;85;21200;-89
2023/03/20 03:24:55;;;;;;;45.30;19.67;;;;;;;1.50;100.00;100453.17;1683192;85;21208;-89
2023/03/20 03:28:37;;;;;;;49.75;21.17;;;;;;;1.61;100.00;100449.70;1682511;85;21160;-89
2023/03/20 03:31:44;;;;;;;42.78;20.52;;;;;;;1.63;100.00;100452.27;1684070;85;21216;-89
2023/03/20 03:34:50;;;;;;;50.48;23.73;;;;;;;1.63;100.00;100447.73;1664770;85;21734;-89
2023/03/20 03:38:31;;;;;;;44.23;23.98;;;;;;;1.72;100.00;100448.39;1683384;85;21228;-90
2023/03/20 03:41:48;;;;;;;56.15;23.98;;;;;;;1.77;100.00;100452.08;1682992;81;21771;-90
2023/03/20 03:45:08;;;;;;;47.30;23.62;;;;;;;1.82;100.00;100451.24;1684179;81;21244;-89
2023/03/20 03:48:26;;;;;;;40.03;23.35;;;;;;;1.95;100.00;100453.87;1682768;81;21750;-89
2023/03/20 03:51:35;;;;;;;47.43;21.80;;;;;;;1.88;100.00;100454.81;1684109;81;21236;-89
2023/03/20 03:55:10;;;;;;;52.33;22.58;;;;;;;1.98;100.00;100450.95;1684171;81;21235;-89
2023/03/20 03:58:32;;;;;;;67.45;23.20;;;;;;;2.02;100.00;100455.10;1684157;81;21192;-89
2023/03/20 04:01:37;;;;;;;63.52;22.60;;;;;;;2.04;100.00;100458.06;1684065;85;21236;-90
2023/03/20 04:04:45;;;;;;;48.90;23.73;;;;;;;2.11;100.00;100454.89;1683012;85;21145;-90
2023/03/20 04:07:55;;;;;;;46.30;24.23;;;;;;;2.15;100.00;100461.28;1683124;85;21799;-89
2023/03/20 04:10:53;;;;;;;47.98;22.98;;;;;;;2.19;100.00;100453.81;1683493;85;21216;-88
2023/03/20 04:14:01;;;;;;;57.35;22.87;;;;;;;2.18;100.00;100457.00;1682666;85;21204;-89
2023/03/20 04:17:07;;;;;;;50.15;23.35;;;;;;;2.17;100.00;100459.83;1683366;85;21271;-89
2023/03/20 04:20:15;;;;;;;46.15;23.27;;;;;;;2.18;100.00;100466.45;1684088;85;21188;-88
2023/03/20 04:23:21;;;;;;;53.78;24.50;;;;;;;2.27;100.00;100464.39;1684068;85;21199;-89
2023/03/20 04:26:28;;;;;;;47.60;23.90;;;;;;;2.36;100.00;100467.36;1683060;85;21207;-89
2023/03/20 04:29:35;;;;;;;46.83;22.82;;;;;;;2.39;100.00;100468.45;1683502;85;21786;-89
2023/03/20 04:32:42;;;;;;;52.50;22.10;;;;;;;2.46;100.00;100463.80;1680775;85;21256;-89
2023/03/20 04:35:52;;;;;;;46.35;22.75;;;;;;;2.57;100.00;100473.75;1683168;85;21239;-89
2023/03/20 04:38:59;;;;;;;53.00;24.65;;;;;;;2.63;100.00;100481.36;1683335;84;21267;-89
2023/03/20 04:41:51;;;;;;;45.15;22.30;;;;;;;2.70;99.96;100477.70;1683907;85;21283;-90
2023/03/20 04:44:57;;;;;;;44.00;20.50;;;;;;;2.69;99.67;100472.79;1684325;85;21196;-88
2023/03/20 04:48:02;;;;;;;52.15;22.07;;;;;;;2.76;99.83;100479.41;1683285;85;21270;-89
2023/03/20 04:51:09;;;;;;;49.05;20.05;;;;;;;2.81;99.18;100471.80;1683781;85;21231;-89
2023/03/20 04:54:16;;;;;;;60.33;24.20;;;;;;;2.78;99.24;100476.11;1684180;85;21184;-89
2023/03/20 04:57:22;;;;;;;52.17;25.90;;;;;;;2.81;99.21;100479.90;1683932;85;21280;-89
2023/03/20 05:00:27;;;;;;;67.00;25.62;;;;;;;2.93;98.89;100486.18;1682942;85;21767;-89
2023/03/20 05:03:34;;;;;;;75.47;29.25;;;;;;;2.94;98.81;100489.73;1684233;85;21200;-90
2023/03/20 05:06:39;;;;;;;49.33;24.60;;;;;;;2.95;98.44;100482.84;1682677;85;21354;-88
2023/03/20 05:09:47;;;;;;;69.70;26.80;;;;;;;2.93;98.16;100490.23;1682850;85;21192;-89
2023/03/20 05:12:55;;;;;;;69.87;24.98;;;;;;;2.90;98.08;100486.41;1684173;85;21739;-90
2023/03/20 05:16:04;;;;;;;64.07;24.60;;;;;;;2.90;98.06;100488.26;1660324;85;21271;-89
2023/03/20 05:19:12;;;;;;;50.83;21.95;;;;;;;2.91;98.01;100481.37;1682888;84;21208;-88
2023/03/20 05:22:21;;;;;;;63.38;21.42;;;;;;;2.94;97.89;100486.54;1682094;85;21790;-89
2023/03/20 05:25:34;;;;;;;56.63;23.75;;;;;;;3.04;97.92;100485.30;1681656;85;21279;-89
2023/03/20 05:28:53;;;;;;;49.73;21.85;;;;;;;3.17;97.61;100481.13;1683401;85;21916;-89
2023/03/20 05:32:17;;;;;;;87.50;24.85;;;;;;;3.11;97.58;100477.09;1683485;85;21335;-89
2023/03/20 05:35:27;;;;;;;51.60;24.60;;;;;;;3.07;97.57;100482.37;1684263;85;21483;-89
2023/03/20 05:38:36;;;;;;;78.50;28.00;;;;;;;3.07;97.71;100484.58;1683711;85;21282;-89
2023/03/20 05:41:54;;;;;;;57.10;25.20;;;;;;;3.11;97.93;100484.34;1684175;85;21196;-89
2023/03/20 05:44:47;;;;;;;65.70;28.12;;;;;;;3.12;97.87;100492.31;1679808;85;21196;-89
2023/03/20 05:47:35;;;;;;;57.70;27.37;;;;;;;3.12;97.48;100486.91;1677734;85;21235;-89
2023/03/20 05:50:42;;;;;;;65.45;27.75;;;;;;;3.11;97.03;100487.90;1625993;85;21223;-89
2023/03/20 05:53:52;;;;;;;58.48;27.50;;;;;;;3.11;97.01;100489.74;1669487;84;21236;-89
2023/03/20 05:56:59;;;;;;;67.82;29.23;;;;;;;3.10;97.12;100491.56;1671205;85;21253;-89
2023/03/20 06:00:24;;;;;;;68.60;28.87;;;;;;;3.07;97.17;100489.98;1651862;86;21260;-89
2023/03/20 06:03:47;;;;;;;45.45;25.75;;;;;;;3.10;97.08;100484.80;1656355;86;21188;-89
2023/03/20 06:06:54;;;;;;;46.50;25.80;;;;;;;3.17;96.50;100483.83;1643909;86;21232;-89
2023/03/20 06:09:49;;;;;;;59.77;25.95;;;;;;;3.25;96.45;100483.58;1668495;86;21771;-88
2023/03/20 06:12:56;;;;;;;66.42;25.40;;;;;;;3.22;96.24;100489.72;1648491;85;21218;-88
2023/03/20 06:16:02;;;;;;;51.77;23.47;;;;;;;3.29;96.26;100492.27;1645142;84;21256;-88
2023/03/20 06:19:08;;;;;;;61.65;24.32;;;;;;;3.32;95.84;100490.69;1632627;86;21228;-88
2023/03/20 06:22:15;;;;;;;51.73;22.45;;;;;;;3.30;95.47;100497.58;1632529;86;21227;-89
2023/03/20 06:25:21;;;;;;;61.75;23.90;;;;;;;3.35;95.55;100499.91;1670391;85;21176;-88
2023/03/20 06:28:27;;;;;;;61.08;23.42;;;;;;;3.31;95.43;100499.78;1672683;83;21196;-88
2023/03/20 06:31:32;;;;;;;44.58;22.42;;;;;;;3.33;95.29;100506.77;1647547;86;22401;-88
2023/03/20 06:34:40;;;;;;;69.15;26.85;;;;;;;3.40;95.46;100502.23;1661724;85;21215;-89
2023/03/20 06:37:46;;;;;;;53.45;21.35;;;;;;;3.48;95.21;100505.14;1648745;85;21208;-88
2023/03/20 06:40:51;;;;;;;48.78;23.18;;;;;;;3.50;95.37;100503.19;1677570;82;21309;-88
2023/03/20 06:43:58;;;;;;;53.00;22.45;;;;;;;3.60;94.95;100505.50;1682837;85;21204;-87
2023/03/20 06:47:06;;;;;;;45.38;20.82;;;;;;;3.61;94.67;100509.91;1663087;86;21224;-88
2023/03/20 06:50:13;;;;;;;66.45;21.62;;;;;;;3.66;94.78;100501.42;1661458;85;21263;-87
2023/03/20 06:53:19;;;;;;;57.33;25.40;;;;;;;3.67;94.29;100499.97;1661512;85;21263;-87
2023/03/20 06:56:27;;;;;;;48.48;23.18;;;;;;;3.54;94.09;100494.70;1653782;81;21203;-88
2023/03/20 06:59:31;;;;;;;66.20;22.27;;;;;;;3.55;94.14;100494.20;1638815;86;21276;-87
2023/03/20 07:02:37;;;;;;;74.05;24.05;;;;;;;3.59;94.04;100505.14;1637441;86;21418;-88
2023/03/20 07:05:45;;;;;;;62.17;21.10;;;;;;;3.50;94.65;100495.08;1648585;83;21334;-88
2023/03/20 07:08:51;;;;;;;53.87;20.00;;;;;;;3.54;94.77;100498.76;1654110;85;21222;-88
2023/03/20 07:11:57;;;;;;;55.40;20.68;;;;;;;3.66;93.99;100496.86;1668909;85;21219;-88
2023/03/20 07:15:02;;;;;;;51.48;23.83;;;;;;;3.64;94.01;100500.20;1675973;85;21366;-89
2023/03/20 07:18:09;;;;;;;49.67;21.27;;;;;;;3.68;94.50;100500.32;1664493;85;21255;-88
2023/03/20 07:21:08;;;;;;;59.08;20.62;;;;;;;3.67;94.39;100493.66;1665780;85;21219;-88
2023/03/20 07:24:15;;;;;;;49.47;20.50;;;;;;;3.69;94.49;100499.33;1657014;86;21830;-89
2023/03/20 07:27:21;;;;;;;64.60;22.02;;;;;;;3.68;94.12;100503.03;1649035;82;21375;-88
2023/03/20 07:30:27;;;;;;;49.40;21.73;;;;;;;3.74;93.96;100494.39;1670011;84;21215;-89
2023/03/20 07:33:33;;;;;;;62.27;21.10;;;;;;;3.87;93.91;100501.00;1670591;81;21200;-88
2023/03/20 07:36:40;;;;;;;52.80;22.67;;;;;;;3.91;93.82;100495.70;1653874;86;21795;-88
2023/03/20 07:39:47;;;;;;;55.45;22.95;;;;;;;3.97;93.31;100503.78;1652604;85;21190;-88
2023/03/20 07:43:00;;;;;;;53.15;19.98;;;;;;;4.07;92.35;100502.02;1640156;86;21444;-88
2023/03/20 07:46:14;;;;;;;55.92;20.52;;;;;;;4.18;92.24;100507.86;1654742;86;21507;-89
2023/03/20 07:49:23;;;;;;;60.70;22.22;;;;;;;4.26;92.10;100509.43;1673566;85;21200;-89
2023/03/20 07:52:31;;;;;;;49.80;19.17;;;;;;;4.35;91.09;100505.94;1674365;85;21169;-88
2023/03/20 07:55:36;;;;;;;51.60;20.75;;;;;;;4.38;91.12;100511.10;1663981;85;21227;-88
2023/03/20 07:58:43;;;;;;;61.68;21.48;;;;;;;4.51;90.86;100513.59;1673274;85;21219;-88
2023/03/20 08:01:49;;;;;;;47.40;21.87;;;;;;;4.54;90.32;100517.40;1663953;85;21193;-88
2023/03/20 08:04:55;;;;;;;43.50;19.23;;;;;;;4.59;89.82;100509.23;1668827;85;21245;-87
2023/03/20 08:07:55;;;;;;;52.15;21.27;;;;;;;4.67;89.28;100511.28;1673377;85;21727;-87
2023/03/20 08:11:00;;;;;;;52.83;20.62;;;;;;;4.69;89.15;100513.35;1662160;84;21204;-87
2023/03/20 08:14:05;;;;;;;63.55;24.25;;;;;;;4.77;88.37;100508.63;1660292;85;21180;-88
2023/03/20 08:17:11;;;;;;;43.20;18.70;;;;;;;4.74;88.42;100508.39;1661047;85;21280;-88
2023/03/20 08:20:19;;;;;;;68.45;22.37;;;;;;;4.85;88.43;100502.05;1659764;85;21828;-87
2023/03/20 08:23:24;;;;;;;56.68;20.12;;;;;;;4.84;88.65;100508.44;1665060;85;21186;-88
2023/03/20 08:26:30;;;;;;;61.20;18.55;;;;;;;4.87;88.66;100503.61;1659739;85;21757;-88
2023/03/20 08:29:35;;;;;;;83.20;20.32;;;;;;;5.03;88.73;100507.67;1672126;85;21195;-88
2023/03/20 08:32:41;;;;;;;43.75;18.52;;;;;;;5.11;88.28;100503.79;1668718;85;21212;-89
2023/03/20 08:35:47;;;;;;;36.08;17.32;;;;;;;5.17;88.05;100502.38;1659224;84;21263;-88
2023/03/20 08:38:55;;;;;;;74.17;23.18;;;;;;;5.26;87.86;100498.84;1668828;85;21199;-88
2023/03/20 08:42:02;;;;;;;66.22;23.38;;;;;;;5.31;87.58;100488.44;1679903;83;21221;-89
2023/03/20 08:45:10;;;;;;;52.05;21.80;;;;;;;5.43;86.69;100495.48;1676722;85;21153;-89
2023/03/20 08:48:15;;;;;;;71.57;21.95;;;;;;;5.44;86.05;100496.34;1681490;85;21246;-87
2023/03/20 08:51:21;;;;;;;92.40;23.25;;;;;;;5.57;85.47;100493.73;1665772;84;21227;-89
2023/03/20 08:54:27;;;;;;;72.37;20.65;;;;;;;5.49;85.82;100489.99;1691715;83;21216;-89
2023/03/20 08:57:34;;;;;;;62.33;20.97;;;;;;;5.70;85.38;100492.13;1652657;85;21157;-89
2023/03/20 09:00:40;;;;;;;60.35;21.27;;;;;;;5.76;84.99;100486.12;1639497;86;21200;-88
2023/03/20 09:03:46;;;;;;;89.47;20.35;;;;;;;5.73;84.98;100480.96;1668181;82;21195;-88
2023/03/20 09:06:51;;;;;;;56.08;18.42;;;;;;;5.87;84.16;100477.83;1669498;85;21806;-90
2023/03/20 09:09:57;;;;;;;59.63;20.48;;;;;;;5.85;83.50;100478.48;1679048;85;21215;-87
2023/03/20 09:13:03;;;;;;;47.67;18.75;;;;;;;5.87;83.89;100477.83;1672911;85;21818;-88
2023/03/20 09:16:05;;;;;;;56.70;17.80;;;;;;;5.93;83.75;100471.50;1656327;86;21232;-88
2023/03/20 09:19:13;;;;;;;73.70;18.35;;;;;;;6.05;83.34;100473.09;1674718;85;21755;-89
2023/03/20 09:22:22;;;;;;;51.75;18.02;;;;;;;5.94;83.17;100468.67;1664655;85;21330;-88
2023/03/20 09:25:27;;;;;;;59.60;21.73;;;;;;;6.14;83.26;100472.23;1663685;85;21618;-88
2023/03/20 09:28:34;;;;;;;65.45;18.55;;;;;;;6.23;82.48;100468.65;1669611;85;21200;-88
2023/03/20 09:31:39;;;;;;;44.95;17.70;;;;;;;6.19;82.78;100469.08;1676610;84;21199;-88
2023/03/20 09:34:45;;;;;;;39.10;17.65;;;;;;;6.19;82.75;100476.73;1678818;85;21172;-88
2023/03/20 09:37:51;;;;;;;51.70;19.00;;;;;;;6.09;83.09;100474.52;1660828;85;21192;-88
2023/03/20 09:41:08;;;;;;;54.03;22.10;;;;;;;6.04;82.83;100462.73;1656970;86;21214;-88
2023/03/20 09:44:47;;;;;;;54.73;22.02;;;;;;;6.26;82.57;100460.73;1648635;86;21205;-87
2023/03/20 09:48:19;;;;;;;89.67;21.93;;;;;;;6.49;82.31;100460.73;1611596;86;21332;-88
2023/03/20 09:51:48;;;;;;;82.37;21.52;;;;;;;6.63;81.63;100456.22;1657442;86;21244;-88
2023/03/20 09:54:57;;;;;;;;;;;;;;;6.71;81.77;100455.45;1647408;86;21240;-88
2023/03/20 09:58:07;;;;;;;108.12;26.10;;;;;;;6.88;81.39;100442.96;1647898;86;20215;-88
2023/03/20 10:01:13;;;;;;;63.42;23.10;;;;;;;6.97;81.07;100444.79;1626516;86;21185;-88
2023/03/20 10:04:20;;;;;;;71.90;27.70;;;;;;;6.89;80.32;100441.44;1662217;86;21862;-89
2023/03/20 10:07:25;;;;;;;79.87;25.27;;;;;;;6.85;80.70;100448.19;1660259;86;21200;-88
2023/03/20 10:10:42;;;;;;;63.98;26.07;;;;;;;6.87;79.90;100442.11;1665956;86;21700;-89
2023/03/20 10:13:56;;;;;;;76.92;26.33;;;;;;;6.85;80.47;100443.25;1652283;86;21180;-88
2023/03/20 10:17:28;;;;;;;72.40;24.85;;;;;;;6.83;79.84;100439.33;1665574;86;21780;-88
2023/03/20 10:20:41;;;;;;;89.95;26.80;;;;;;;6.74;80.51;100447.52;1650041;86;22312;-88
2023/03/20 10:24:14;;;;;;;84.13;26.45;;;;;;;6.77;80.55;100456.22;1661474;86;21157;-88
2023/03/20 10:27:42;;;;;;;82.55;30.05;;;;;;;6.76;80.29;100441.42;1662654;86;21583;-88
2023/03/20 10:30:59;;;;;;;77.60;26.33;;;;;;;6.80;79.88;100447.77;1664136;86;21280;-87
2023/03/20 10:34:26;;;;;;;53.28;22.22;;;;;;;6.78;80.00;100432.12;1670074;85;21235;-87
2023/03/20 10:37:22;;;;;;;65.75;25.45;;;;;;;6.88;80.26;100431.58;1663917;85;21192;-88
2023/03/20 10:40:34;;;;;;;86.65;27.67;;;;;;;6.82;79.93;100434.02;1655733;85;21376;-88
2023/03/20 10:43:31;;;;;;;59.83;29.10;;;;;;;6.71;80.52;100430.99;1656694;86;21199;-89
2023/03/20 10:46:48;;;;;;;68.65;27.10;;;;;;;6.79;80.77;100426.19;1673626;85;21260;-87
2023/03/20 10:50:04;;;;;;;84.05;25.40;;;;;;;6.82;80.41;100428.11;1645982;87;21177;-88
2023/03/20 10:53:09;;;;;;;83.35;25.15;;;;;;;6.82;80.46;100419.95;1656641;86;21199;-89
2023/03/20 10:56:20;;;;;;;79.47;26.85;;;;;;;7.02;79.95;100411.70;1663804;85;21184;-87
2023/03/20 10:59:33;;;;;;;100.33;27.30;;;;;;;7.06;79.49;100410.39;1660592;85;21200;-87
2023/03/20 11:02:38;;;;;;;65.65;23.52;;;;;;;7.12;79.68;100407.06;1659735;85;21260;-89
2023/03/20 11:05:45;;;;;;;82.88;25.27;;;;;;;7.13;79.81;100406.90;1666743;86;21197;-89
2023/03/20 11:08:51;;;;;;;63.35;23.98;;;;;;;7.12;79.54;100408.42;1639050;86;21225;-88
2023/03/20 11:11:54;;;;;;;54.63;22.45;;;;;;;7.06;79.36;100404.45;1658001;84;64071;-81
2023/03/20 11:15:03;;;;;;;71.80;24.15;;;;;;;7.09;79.22;100404.63;1673863;85;21189;-81
2023/03/20 11:18:13;;;;;;;67.78;23.57;;;;;;;7.05;79.09;100399.14;1670312;83;21228;-82
2023/03/20 11:21:34;;;;;;;71.45;24.43;;;;;;;7.12;79.20;100392.09;1661095;84;21221;-81
2023/03/20 11:24:43;;;;;;;58.63;23.07;;;;;;;7.23;78.58;100383.72;1713036;83;21732;-81
2023/03/20 11:27:49;;;;;;;62.80;23.02;;;;;;;7.27;78.76;100386.99;1676715;85;21248;-82
2023/03/20 11:30:54;;;;;;;60.12;24.37;;;;;;;7.40;78.61;100386.13;1644208;87;21737;-82
2023/03/20 11:34:18;;;;;;;70.80;24.05;;;;;;;7.52;77.90;100390.81;1654820;86;21245;-82
2023/03/20 11:37:38;;;;;;;68.65;23.67;;;;;;;7.65;77.44;100381.77;1656877;85;21276;-82
2023/03/20 11:40:46;;;;;;;68.87;21.85;;;;;;;7.85;76.84;100381.94;1655649;86;21311;-82
2023/03/20 11:43:53;;;;;;;57.80;21.77;;;;;;;7.96;76.51;100382.73;1653347;86;21820;-82
2023/03/20 11:47:21;;;;;;;102.20;22.75;;;;;;;8.01;75.65;100380.39;1645408;86;21218;-82
2023/03/20 11:50:38;;;;;;;57.05;21.33;;;;;;;7.79;76.07;100374.41;1639750;86;21225;-82
2023/03/20 11:53:59;;;;;;;67.50;22.10;;;;;;;7.88;76.71;100373.47;1659071;85;21339;-82
2023/03/20 11:57:06;;;;;;;;;;;;;;;8.05;75.71;100364.94;1634689;86;21773;-82
2023/03/20 12:00:32;;;;;;;65.40;21.30;;;;;;;8.05;76.09;100360.84;1656772;86;20247;-83
2023/03/20 12:03:46;;;;;;;66.22;22.55;;;;;;;8.04;75.94;100363.20;1646193;86;21179;-82
2023/03/20 12:07:05;;;;;;;66.47;22.52;;;;;;;8.00;76.82;100358.22;1646528;86;21226;-82
2023/03/20 12:10:13;;;;;;;94.25;22.55;;;;;;;8.07;76.33;100356.59;1654677;86;21335;-82
2023/03/20 12:13:27;;;;;;;72.95;23.75;;;;;;;8.15;75.83;100359.38;1679014;84;21720;-82
2023/03/20 12:16:35;;;;;;;67.50;23.55;;;;;;;8.14;75.32;100361.26;1683140;84;21197;-82
2023/03/20 12:19:42;;;;;;;78.75;24.57;;;;;;;8.23;74.86;100357.20;1684175;83;21197;-81
2023/03/20 12:23:22;;;;;;;75.67;25.40;;;;;;;8.14;75.23;100355.81;1677307;84;21241;-82
2023/03/20 12:26:44;;;;;;;65.32;25.60;;;;;;;8.08;75.23;100350.13;1643490;86;21235;-82
2023/03/20 12:29:58;;;;;;;75.40;26.93;;;;;;;7.92;75.82;100356.31;1627825;86;21236;-82
2023/03/20 12:33:10;;;;;;;83.30;25.62;;;;;;;7.86;76.11;100352.36;1653552;85;21199;-82
2023/03/20 12:36:24;;;;;;;72.60;25.10;;;;;;;7.78;76.25;100341.39;1684097;84;21230;-82
2023/03/20 12:39:33;;;;;;;67.53;22.22;;;;;;;7.80;76.93;100346.67;1680539;84;21598;-82
2023/03/20 12:43:02;;;;;;;79.58;21.00;;;;;;;7.80;76.94;100340.72;1681078;84;21217;-82
2023/03/20 12:46:32;;;;;;;60.78;19.90;;;;;;;7.82;77.20;100342.79;1684665;84;21274;-82
2023/03/20 12:49:57;;;;;;;58.20;20.55;;;;;;;7.84;77.91;100330.37;1680053;84;22410;-81
2023/03/20 12:53:51;;;;;;;54.40;18.65;;;;;;;7.78;77.33;100337.30;1677836;84;21158;-81
2023/03/20 12:57:12;;;;;;;58.00;18.37;;;;;;;7.71;78.10;100325.83;1687909;84;21748;-82
2023/03/20 13:00:36;;;;;;;59.73;18.52;;;;;;;7.64;78.58;100330.55;1695446;83;21248;-81
2023/03/20 13:03:59;;;;;;;81.72;19.40;;;;;;;7.63;78.96;100323.41;1692616;84;21194;-83
2023/03/20 13:07:04;;;;;;;65.52;20.23;;;;;;;7.53;78.94;100318.55;1694450;84;21162;-83
2023/03/20 13:10:15;;;;;;;68.22;19.17;;;;;;;7.46;79.51;100313.88;1619399;88;21265;-83
2023/03/20 13:13:46;;;;;;;61.60;19.40;;;;;;;7.40;79.91;100318.09;1683409;84;21221;-83
2023/03/20 13:17:14;;;;;;;76.92;18.70;;;;;;;7.47;80.67;100316.95;1682686;84;21308;-82
2023/03/20 13:20:32;;;;;;;62.35;18.27;;;;;;;7.47;80.01;100313.72;1671738;84;21201;-82
2023/03/20 13:23:58;;;;;;;64.85;17.15;;;;;;;7.45;80.23;100310.31;1617467;87;21262;-82
2023/03/20 13:27:15;;;;;;;57.23;18.80;;;;;;;7.46;80.52;100307.08;1675773;84;21544;-82
2023/03/20 13:30:42;;;;;;;64.03;17.45;;;;;;;7.50;80.49;100316.13;1669922;84;21235;-82
2023/03/20 13:34:07;;;;;;;64.12;17.85;;;;;;;7.60;80.83;100306.52;1593214;86;21269;-82
2023/03/20 13:37:20;;;;;;;61.48;17.48;;;;;;;7.75;80.11;100313.11;1674773;84;21181;-82
2023/03/20 13:40:32;;;;;;;70.57;18.00;;;;;;;7.74;80.65;100311.91;1680286;84;21222;-83
2023/03/20 13:43:59;;;;;;;63.28;18.17;;;;;;;7.76;80.05;100304.42;1685135;84;21186;-82
2023/03/20 13:47:12;;;;;;;60.50;16.27;;;;;;;7.81;80.12;100311.61;1648460;86;21270;-83
2023/03/20 13:50:50;;;;;;;56.50;16.45;;;;;;;7.80;79.73;100304.46;1690766;84;21210;-83
2023/03/20 13:54:34;;;;;;;56.00;15.68;;;;;;;7.75;79.84;100306.30;1685561;84;21195;-82
2023/03/20 13:58:11;;;;;;;61.60;15.65;;;;;;;7.72;80.33;100308.00;1688031;84;21178;-82
2023/03/20 14:01:23;;;;;;;47.53;16.35;;;;;;;7.68;80.13;100294.34;1688135;84;21198;-82
2023/03/20 14:04:23;;;;;;;56.95;17.23;;;;;;;7.69;80.85;100294.69;1655261;86;21233;-82
2023/03/20 14:07:43;;;;;;;67.67;17.00;;;;;;;7.75;80.01;100292.68;1687624;84;21230;-82
2023/03/20 14:10:50;;;;;;;72.12;17.40;;;;;;;7.62;80.12;100290.88;1691369;84;21257;-82
2023/03/20 14:13:58;;;;;;;72.67;19.25;;;;;;;7.45;80.39;100290.41;1691583;84;21348;-82
2023/03/20 14:17:13;;;;;;;57.95;17.75;;;;;;;7.38;80.95;100293.73;1692822;84;21217;-83
2023/03/20 14:20:27;;;;;;;73.90;21.33;;;;;;;7.31;80.77;100287.22;1691530;84;21217;-83
2023/03/20 14:23:46;;;;;;;57.93;18.98;;;;;;;7.19;81.47;100284.37;1691606;84;21226;-82
2023/03/20 14:26:56;;;;;;;49.50;19.05;;;;;;;7.13;82.23;100287.21;1691431;84;21213;-82
2023/03/20 14:30:02;;;;;;;54.85;18.05;;;;;;;7.06;83.07;100281.20;1692484;84;21262;-82
2023/03/20 14:33:16;;;;;;;72.08;18.80;;;;;;;7.00;83.76;100276.36;1693423;84;21530;-82
2023/03/20 14:36:28;;;;;;;55.73;18.20;;;;;;;7.04;83.57;100273.17;1692132;84;21214;-82
2023/03/20 14:39:42;;;;;;;66.15;23.67;;;;;;;7.09;83.21;100272.72;1692615;84;21205;-82
2023/03/20 14:43:05;;;;;;;79.03;22.15;;;;;;;6.97;83.50;100267.17;1692645;84;21213;-82